sensor_id;sensor_type;location;lat;lon;timestamp;temperature;humidity
20246;DHT22;10281;54.406;18.556;2022-07-29T00:02:18;13.60;99.90
20246;DHT22;10281;54.406;18.556;2022-07-29T00:04:45;13.50;99.90
20246;DHT22;10281;54.406;18.556;2022-07-29T00:07:12;13.50;99.90
20246;DHT22;10281;54.406;18.556;2022-07-29T00:09:38;13.50;99.90
20246;DHT22;10281;54.406;18.556;2022-07-29T00:12:05;13.50;99.90
20246;DHT22;10281;54.406;18.556;2022-07-29T00:14:32;13.40;99.90
20246;DHT22;10281;54.406;18.556;2022-07-29T00:16:58;13.40;99.90
20246;DHT22;10281;54.406;18.556;2022-07-29T00:19:25;13.40;99.90
20246;DHT22;10281;54.406;18.556;2022-07-29T00:21:52;13.30;99.90
20246;DHT22;10281;54.406;18.556;2022-07-29T00:24:18;13.30;99.90
20246;DHT22;10281;54.406;18.556;2022-07-29T00:26:45;13.30;99.90
20246;DHT22;10281;54.406;18.556;2022-07-29T00:29:11;13.20;99.90
20246;DHT22;10281;54.406;18.556;2022-07-29T00:31:38;13.20;99.90
20246;DHT22;10281;54.406;18.556;2022-07-29T00:34:05;13.10;99.90
20246;DHT22;10281;54.406;18.556;2022-07-29T00:36:33;13.10;99.90
20246;DHT22;10281;54.406;18.556;2022-07-29T00:39:00;13.20;99.90
20246;DHT22;10281;54.406;18.556;2022-07-29T00:41:27;13.10;99.90
20246;DHT22;10281;54.406;18.556;2022-07-29T00:43:53;13.10;99.90
20246;DHT22;10281;54.406;18.556;2022-07-29T00:46:20;13.10;99.90
20246;DHT22;10281;54.406;18.556;2022-07-29T00:48:46;13.00;99.90
20246;DHT22;10281;54.406;18.556;2022-07-29T00:51:13;13.10;99.90
20246;DHT22;10281;54.406;18.556;2022-07-29T00:53:41;13.10;99.90
20246;DHT22;10281;54.406;18.556;2022-07-29T00:56:08;13.00;99.90
20246;DHT22;10281;54.406;18.556;2022-07-29T00:58:35;13.00;99.90
20246;DHT22;10281;54.406;18.556;2022-07-29T01:01:01;12.90;99.90
20246;DHT22;10281;54.406;18.556;2022-07-29T01:03:28;12.90;99.90
20246;DHT22;10281;54.406;18.556;2022-07-29T01:05:54;12.90;99.90
20246;DHT22;10281;54.406;18.556;2022-07-29T01:08:23;12.90;99.90
20246;DHT22;10281;54.406;18.556;2022-07-29T01:10:51;12.90;99.90
20246;DHT22;10281;54.406;18.556;2022-07-29T01:13:18;12.90;99.90
20246;DHT22;10281;54.406;18.556;2022-07-29T01:15:49;12.90;99.90
20246;DHT22;10281;54.406;18.556;2022-07-29T01:18:20;12.90;99.90
20246;DHT22;10281;54.406;18.556;2022-07-29T01:24:35;12.90;99.90
20246;DHT22;10281;54.406;18.556;2022-07-29T01:26:24;12.90;99.90
20246;DHT22;10281;54.406;18.556;2022-07-29T01:28:58;12.90;99.90
20246;DHT22;10281;54.406;18.556;2022-07-29T01:31:33;12.80;99.90
20246;DHT22;10281;54.406;18.556;2022-07-29T01:34:02;12.80;99.90
20246;DHT22;10281;54.406;18.556;2022-07-29T01:36:33;12.80;99.90
20246;DHT22;10281;54.406;18.556;2022-07-29T01:39:10;12.80;99.90
20246;DHT22;10281;54.406;18.556;2022-07-29T01:41:40;12.80;99.90
20246;DHT22;10281;54.406;18.556;2022-07-29T01:44:15;12.80;99.90
20246;DHT22;10281;54.406;18.556;2022-07-29T01:46:44;12.80;99.90
20246;DHT22;10281;54.406;18.556;2022-07-29T01:49:15;12.80;99.90
20246;DHT22;10281;54.406;18.556;2022-07-29T01:51:50;12.80;99.90
20246;DHT22;10281;54.406;18.556;2022-07-29T01:54:25;12.80;99.90
20246;DHT22;10281;54.406;18.556;2022-07-29T01:56:55;12.70;99.90
20246;DHT22;10281;54.406;18.556;2022-07-29T01:59:23;12.70;99.90
20246;DHT22;10281;54.406;18.556;2022-07-29T02:01:53;12.70;99.90
20246;DHT22;10281;54.406;18.556;2022-07-29T02:04:20;12.80;99.90
20246;DHT22;10281;54.406;18.556;2022-07-29T02:06:49;12.70;99.90
20246;DHT22;10281;54.406;18.556;2022-07-29T02:09:17;12.80;99.90
20246;DHT22;10281;54.406;18.556;2022-07-29T02:11:50;12.80;99.90
20246;DHT22;10281;54.406;18.556;2022-07-29T02:14:19;12.80;99.90
20246;DHT22;10281;54.406;18.556;2022-07-29T02:16:48;12.80;99.90
20246;DHT22;10281;54.406;18.556;2022-07-29T02:19:17;12.70;99.90
20246;DHT22;10281;54.406;18.556;2022-07-29T02:21:45;12.70;99.90
20246;DHT22;10281;54.406;18.556;2022-07-29T02:24:12;12.70;99.90
20246;DHT22;10281;54.406;18.556;2022-07-29T02:26:41;12.60;99.90
20246;DHT22;10281;54.406;18.556;2022-07-29T02:29:09;12.60;99.90
20246;DHT22;10281;54.406;18.556;2022-07-29T02:31:37;12.60;99.90
20246;DHT22;10281;54.406;18.556;2022-07-29T02:34:08;12.60;99.90
20246;DHT22;10281;54.406;18.556;2022-07-29T02:36:36;12.60;99.90
20246;DHT22;10281;54.406;18.556;2022-07-29T02:39:03;12.50;99.90
20246;DHT22;10281;54.406;18.556;2022-07-29T02:41:35;12.50;99.90
20246;DHT22;10281;54.406;18.556;2022-07-29T02:44:05;12.50;99.90
20246;DHT22;10281;54.406;18.556;2022-07-29T02:46:34;12.50;99.90
20246;DHT22;10281;54.406;18.556;2022-07-29T02:49:07;12.50;99.90
20246;DHT22;10281;54.406;18.556;2022-07-29T02:51:43;12.50;99.90
20246;DHT22;10281;54.406;18.556;2022-07-29T02:57:00;12.50;99.90
20246;DHT22;10281;54.406;18.556;2022-07-29T02:59:30;12.50;99.90
20246;DHT22;10281;54.406;18.556;2022-07-29T03:01:59;12.50;99.90
20246;DHT22;10281;54.406;18.556;2022-07-29T03:04:28;12.50;99.90
20246;DHT22;10281;54.406;18.556;2022-07-29T03:06:58;12.50;99.90
20246;DHT22;10281;54.406;18.556;2022-07-29T03:09:26;12.50;99.90
20246;DHT22;10281;54.406;18.556;2022-07-29T03:11:54;12.60;99.90
20246;DHT22;10281;54.406;18.556;2022-07-29T03:14:23;12.50;99.90
20246;DHT22;10281;54.406;18.556;2022-07-29T03:16:50;12.50;99.90
20246;DHT22;10281;54.406;18.556;2022-07-29T03:19:18;12.50;99.90
20246;DHT22;10281;54.406;18.556;2022-07-29T03:21:46;12.50;99.90
20246;DHT22;10281;54.406;18.556;2022-07-29T03:24:24;12.50;99.90
20246;DHT22;10281;54.406;18.556;2022-07-29T03:26:50;12.60;99.90
20246;DHT22;10281;54.406;18.556;2022-07-29T03:29:17;12.60;99.90
20246;DHT22;10281;54.406;18.556;2022-07-29T03:31:44;12.60;99.90
20246;DHT22;10281;54.406;18.556;2022-07-29T03:34:10;12.60;99.90
20246;DHT22;10281;54.406;18.556;2022-07-29T03:36:37;12.60;99.90
20246;DHT22;10281;54.406;18.556;2022-07-29T03:39:04;12.60;99.90
20246;DHT22;10281;54.406;18.556;2022-07-29T03:41:31;12.60;99.90
20246;DHT22;10281;54.406;18.556;2022-07-29T03:44:00;12.70;99.90
20246;DHT22;10281;54.406;18.556;2022-07-29T03:46:28;12.70;99.90
20246;DHT22;10281;54.406;18.556;2022-07-29T03:48:58;12.70;99.90
20246;DHT22;10281;54.406;18.556;2022-07-29T03:51:26;12.70;99.90
20246;DHT22;10281;54.406;18.556;2022-07-29T03:53:53;12.70;99.90
20246;DHT22;10281;54.406;18.556;2022-07-29T03:56:21;12.80;99.90
20246;DHT22;10281;54.406;18.556;2022-07-29T03:58:50;12.80;99.90
20246;DHT22;10281;54.406;18.556;2022-07-29T04:01:18;12.80;99.90
20246;DHT22;10281;54.406;18.556;2022-07-29T04:03:46;12.90;99.90
20246;DHT22;10281;54.406;18.556;2022-07-29T04:06:13;12.90;99.90
20246;DHT22;10281;54.406;18.556;2022-07-29T04:08:39;13.00;99.90
20246;DHT22;10281;54.406;18.556;2022-07-29T04:11:06;13.10;99.90
20246;DHT22;10281;54.406;18.556;2022-07-29T04:13:33;13.20;99.90
20246;DHT22;10281;54.406;18.556;2022-07-29T04:15:59;13.30;99.90
20246;DHT22;10281;54.406;18.556;2022-07-29T04:18:26;13.40;99.90
20246;DHT22;10281;54.406;18.556;2022-07-29T04:20:53;13.40;99.90
20246;DHT22;10281;54.406;18.556;2022-07-29T04:23:19;13.40;99.90
20246;DHT22;10281;54.406;18.556;2022-07-29T04:25:46;13.50;99.90
20246;DHT22;10281;54.406;18.556;2022-07-29T04:28:13;13.60;99.90
20246;DHT22;10281;54.406;18.556;2022-07-29T04:30:39;13.70;99.90
20246;DHT22;10281;54.406;18.556;2022-07-29T04:33:07;13.70;99.90
20246;DHT22;10281;54.406;18.556;2022-07-29T04:35:36;13.70;99.90
20246;DHT22;10281;54.406;18.556;2022-07-29T04:38:04;13.80;99.90
20246;DHT22;10281;54.406;18.556;2022-07-29T04:40:31;13.90;99.90
20246;DHT22;10281;54.406;18.556;2022-07-29T04:43:00;14.00;99.90
20246;DHT22;10281;54.406;18.556;2022-07-29T04:45:27;14.10;99.90
20246;DHT22;10281;54.406;18.556;2022-07-29T04:47:55;14.20;99.90
20246;DHT22;10281;54.406;18.556;2022-07-29T04:50:22;14.30;99.90
20246;DHT22;10281;54.406;18.556;2022-07-29T04:52:49;14.30;99.90
20246;DHT22;10281;54.406;18.556;2022-07-29T04:55:16;14.30;99.90
20246;DHT22;10281;54.406;18.556;2022-07-29T04:57:42;14.40;99.90
20246;DHT22;10281;54.406;18.556;2022-07-29T05:00:09;14.40;99.90
20246;DHT22;10281;54.406;18.556;2022-07-29T05:02:36;14.50;99.90
20246;DHT22;10281;54.406;18.556;2022-07-29T05:05:03;14.60;99.90
20246;DHT22;10281;54.406;18.556;2022-07-29T05:07:30;14.70;99.90
20246;DHT22;10281;54.406;18.556;2022-07-29T05:09:56;14.80;99.90
20246;DHT22;10281;54.406;18.556;2022-07-29T05:12:24;15.00;99.90
20246;DHT22;10281;54.406;18.556;2022-07-29T05:14:51;15.00;99.90
20246;DHT22;10281;54.406;18.556;2022-07-29T05:17:17;15.20;99.90
20246;DHT22;10281;54.406;18.556;2022-07-29T05:19:44;15.30;99.90
20246;DHT22;10281;54.406;18.556;2022-07-29T05:22:11;15.40;99.90
20246;DHT22;10281;54.406;18.556;2022-07-29T05:24:38;15.50;99.90
20246;DHT22;10281;54.406;18.556;2022-07-29T05:27:04;15.60;99.90
20246;DHT22;10281;54.406;18.556;2022-07-29T05:29:31;15.80;99.90
20246;DHT22;10281;54.406;18.556;2022-07-29T05:31:58;15.90;99.90
20246;DHT22;10281;54.406;18.556;2022-07-29T05:34:24;16.00;99.90
20246;DHT22;10281;54.406;18.556;2022-07-29T05:36:51;16.20;99.90
20246;DHT22;10281;54.406;18.556;2022-07-29T05:39:18;16.40;99.90
20246;DHT22;10281;54.406;18.556;2022-07-29T05:41:44;16.60;99.90
20246;DHT22;10281;54.406;18.556;2022-07-29T05:44:11;16.80;99.90
20246;DHT22;10281;54.406;18.556;2022-07-29T05:46:39;17.00;99.90
20246;DHT22;10281;54.406;18.556;2022-07-29T05:49:06;17.10;99.90
20246;DHT22;10281;54.406;18.556;2022-07-29T05:51:33;17.20;99.90
20246;DHT22;10281;54.406;18.556;2022-07-29T05:54:00;17.30;99.90
20246;DHT22;10281;54.406;18.556;2022-07-29T05:56:29;17.30;99.90
20246;DHT22;10281;54.406;18.556;2022-07-29T05:58:55;17.40;99.90
20246;DHT22;10281;54.406;18.556;2022-07-29T06:01:22;17.60;99.90
20246;DHT22;10281;54.406;18.556;2022-07-29T06:03:49;17.70;99.90
20246;DHT22;10281;54.406;18.556;2022-07-29T06:06:15;17.70;99.90
20246;DHT22;10281;54.406;18.556;2022-07-29T06:08:42;17.80;99.90
20246;DHT22;10281;54.406;18.556;2022-07-29T06:11:08;17.90;99.90
20246;DHT22;10281;54.406;18.556;2022-07-29T06:13:35;18.00;99.90
20246;DHT22;10281;54.406;18.556;2022-07-29T06:16:02;18.10;99.90
20246;DHT22;10281;54.406;18.556;2022-07-29T06:18:30;18.20;99.90
20246;DHT22;10281;54.406;18.556;2022-07-29T06:20:56;18.30;99.90
20246;DHT22;10281;54.406;18.556;2022-07-29T06:23:23;18.40;99.90
20246;DHT22;10281;54.406;18.556;2022-07-29T06:25:50;18.50;99.90
20246;DHT22;10281;54.406;18.556;2022-07-29T06:28:16;18.50;99.90
20246;DHT22;10281;54.406;18.556;2022-07-29T06:30:43;18.60;99.90
20246;DHT22;10281;54.406;18.556;2022-07-29T06:33:09;18.70;99.90
20246;DHT22;10281;54.406;18.556;2022-07-29T06:35:38;18.70;99.90
20246;DHT22;10281;54.406;18.556;2022-07-29T06:38:05;18.80;99.90
20246;DHT22;10281;54.406;18.556;2022-07-29T06:40:31;18.90;99.90
20246;DHT22;10281;54.406;18.556;2022-07-29T06:43:04;18.90;99.90
20246;DHT22;10281;54.406;18.556;2022-07-29T06:45:33;19.00;99.90
20246;DHT22;10281;54.406;18.556;2022-07-29T06:48:00;19.00;99.90
20246;DHT22;10281;54.406;18.556;2022-07-29T06:50:27;19.10;99.90
20246;DHT22;10281;54.406;18.556;2022-07-29T06:52:53;19.10;99.90
20246;DHT22;10281;54.406;18.556;2022-07-29T06:55:20;19.20;99.90
20246;DHT22;10281;54.406;18.556;2022-07-29T06:57:47;19.20;99.90
20246;DHT22;10281;54.406;18.556;2022-07-29T07:00:14;19.30;99.90
20246;DHT22;10281;54.406;18.556;2022-07-29T07:02:41;19.30;99.90
20246;DHT22;10281;54.406;18.556;2022-07-29T07:05:07;19.30;99.90
20246;DHT22;10281;54.406;18.556;2022-07-29T07:07:35;19.40;99.90
20246;DHT22;10281;54.406;18.556;2022-07-29T07:10:02;19.50;99.90
20246;DHT22;10281;54.406;18.556;2022-07-29T07:12:29;19.60;99.90
20246;DHT22;10281;54.406;18.556;2022-07-29T07:14:56;19.60;99.90
20246;DHT22;10281;54.406;18.556;2022-07-29T07:17:22;19.60;99.90
20246;DHT22;10281;54.406;18.556;2022-07-29T07:19:50;19.60;99.90
20246;DHT22;10281;54.406;18.556;2022-07-29T07:22:16;19.60;99.90
20246;DHT22;10281;54.406;18.556;2022-07-29T07:24:43;19.70;99.90
20246;DHT22;10281;54.406;18.556;2022-07-29T07:27:10;19.80;99.90
20246;DHT22;10281;54.406;18.556;2022-07-29T07:29:36;19.80;99.90
20246;DHT22;10281;54.406;18.556;2022-07-29T07:32:05;19.80;99.90
20246;DHT22;10281;54.406;18.556;2022-07-29T07:34:31;19.90;99.90
20246;DHT22;10281;54.406;18.556;2022-07-29T07:36:58;19.90;99.90
20246;DHT22;10281;54.406;18.556;2022-07-29T07:39:25;19.90;99.90
20246;DHT22;10281;54.406;18.556;2022-07-29T07:41:52;19.90;99.90
20246;DHT22;10281;54.406;18.556;2022-07-29T07:44:18;19.90;99.90
20246;DHT22;10281;54.406;18.556;2022-07-29T07:46:45;19.90;99.90
20246;DHT22;10281;54.406;18.556;2022-07-29T07:49:12;19.80;99.90
20246;DHT22;10281;54.406;18.556;2022-07-29T07:51:38;19.90;99.90
20246;DHT22;10281;54.406;18.556;2022-07-29T07:54:05;20.00;99.90
20246;DHT22;10281;54.406;18.556;2022-07-29T07:56:31;20.00;99.90
20246;DHT22;10281;54.406;18.556;2022-07-29T07:58:58;19.90;99.90
20246;DHT22;10281;54.406;18.556;2022-07-29T08:01:25;19.90;99.90
20246;DHT22;10281;54.406;18.556;2022-07-29T08:03:51;19.90;99.90
20246;DHT22;10281;54.406;18.556;2022-07-29T08:06:18;20.00;99.90
20246;DHT22;10281;54.406;18.556;2022-07-29T08:08:45;20.00;99.90
20246;DHT22;10281;54.406;18.556;2022-07-29T08:11:11;19.90;99.90
20246;DHT22;10281;54.406;18.556;2022-07-29T08:13:38;20.00;99.90
20246;DHT22;10281;54.406;18.556;2022-07-29T08:16:06;20.00;99.90
20246;DHT22;10281;54.406;18.556;2022-07-29T08:18:39;19.90;99.90
20246;DHT22;10281;54.406;18.556;2022-07-29T08:21:06;19.80;99.90
20246;DHT22;10281;54.406;18.556;2022-07-29T08:23:32;19.80;99.90
20246;DHT22;10281;54.406;18.556;2022-07-29T08:26:19;19.80;99.90
20246;DHT22;10281;54.406;18.556;2022-07-29T08:28:46;19.80;99.90
20246;DHT22;10281;54.406;18.556;2022-07-29T08:31:16;20.00;99.90
20246;DHT22;10281;54.406;18.556;2022-07-29T08:33:43;20.00;99.90
20246;DHT22;10281;54.406;18.556;2022-07-29T08:36:10;20.00;99.90
20246;DHT22;10281;54.406;18.556;2022-07-29T08:38:38;20.00;99.90
20246;DHT22;10281;54.406;18.556;2022-07-29T08:41:05;20.00;99.90
20246;DHT22;10281;54.406;18.556;2022-07-29T08:43:32;20.10;99.90
20246;DHT22;10281;54.406;18.556;2022-07-29T08:46:00;20.20;99.90
20246;DHT22;10281;54.406;18.556;2022-07-29T08:48:27;20.20;99.90
20246;DHT22;10281;54.406;18.556;2022-07-29T08:50:56;20.20;99.90
20246;DHT22;10281;54.406;18.556;2022-07-29T08:53:25;20.30;99.90
20246;DHT22;10281;54.406;18.556;2022-07-29T08:55:53;20.30;99.90
20246;DHT22;10281;54.406;18.556;2022-07-29T08:58:20;20.40;99.90
20246;DHT22;10281;54.406;18.556;2022-07-29T09:00:52;20.30;99.90
20246;DHT22;10281;54.406;18.556;2022-07-29T09:03:20;20.20;99.90
20246;DHT22;10281;54.406;18.556;2022-07-29T09:05:49;20.20;99.90
20246;DHT22;10281;54.406;18.556;2022-07-29T09:08:17;20.10;99.90
20246;DHT22;10281;54.406;18.556;2022-07-29T09:10:44;20.20;99.90
20246;DHT22;10281;54.406;18.556;2022-07-29T09:13:11;20.30;99.90
20246;DHT22;10281;54.406;18.556;2022-07-29T09:15:37;20.30;99.90
20246;DHT22;10281;54.406;18.556;2022-07-29T09:18:04;20.30;99.90
20246;DHT22;10281;54.406;18.556;2022-07-29T09:20:31;20.30;99.90
20246;DHT22;10281;54.406;18.556;2022-07-29T09:23:07;20.40;99.90
20246;DHT22;10281;54.406;18.556;2022-07-29T09:25:36;20.40;99.90
20246;DHT22;10281;54.406;18.556;2022-07-29T09:28:08;20.40;99.90
20246;DHT22;10281;54.406;18.556;2022-07-29T09:30:37;20.40;99.90
20246;DHT22;10281;54.406;18.556;2022-07-29T09:33:04;20.40;99.90
20246;DHT22;10281;54.406;18.556;2022-07-29T09:35:31;20.40;99.90
20246;DHT22;10281;54.406;18.556;2022-07-29T09:38:09;20.40;99.90
20246;DHT22;10281;54.406;18.556;2022-07-29T09:40:30;20.30;99.90
20246;DHT22;10281;54.406;18.556;2022-07-29T09:42:56;20.30;99.90
20246;DHT22;10281;54.406;18.556;2022-07-29T09:45:31;20.30;99.90
20246;DHT22;10281;54.406;18.556;2022-07-29T09:47:59;20.30;99.90
20246;DHT22;10281;54.406;18.556;2022-07-29T09:50:36;20.30;99.90
20246;DHT22;10281;54.406;18.556;2022-07-29T09:53:03;20.30;99.90
20246;DHT22;10281;54.406;18.556;2022-07-29T09:55:29;20.20;99.90
20246;DHT22;10281;54.406;18.556;2022-07-29T10:00:33;20.20;99.90
20246;DHT22;10281;54.406;18.556;2022-07-29T10:03:01;20.10;99.90
20246;DHT22;10281;54.406;18.556;2022-07-29T10:05:28;20.20;99.90
20246;DHT22;10281;54.406;18.556;2022-07-29T10:07:56;20.20;99.90
20246;DHT22;10281;54.406;18.556;2022-07-29T10:10:26;20.30;99.90
20246;DHT22;10281;54.406;18.556;2022-07-29T10:12:56;20.30;99.90
20246;DHT22;10281;54.406;18.556;2022-07-29T10:15:25;20.40;99.90
20246;DHT22;10281;54.406;18.556;2022-07-29T10:17:53;20.40;99.90
20246;DHT22;10281;54.406;18.556;2022-07-29T10:20:22;20.40;99.90
20246;DHT22;10281;54.406;18.556;2022-07-29T10:22:50;20.40;99.90
20246;DHT22;10281;54.406;18.556;2022-07-29T10:25:18;20.40;99.90
20246;DHT22;10281;54.406;18.556;2022-07-29T10:27:45;20.30;99.90
20246;DHT22;10281;54.406;18.556;2022-07-29T10:30:14;20.40;99.90
20246;DHT22;10281;54.406;18.556;2022-07-29T10:35:28;20.60;99.90
20246;DHT22;10281;54.406;18.556;2022-07-29T10:38:07;20.60;99.90
20246;DHT22;10281;54.406;18.556;2022-07-29T10:40:42;20.60;99.40
20246;DHT22;10281;54.406;18.556;2022-07-29T10:43:19;20.60;99.80
20246;DHT22;10281;54.406;18.556;2022-07-29T10:45:48;20.60;94.30
20246;DHT22;10281;54.406;18.556;2022-07-29T10:48:15;20.60;97.90
20246;DHT22;10281;54.406;18.556;2022-07-29T10:50:53;20.70;98.40
20246;DHT22;10281;54.406;18.556;2022-07-29T10:53:23;20.60;97.50
20246;DHT22;10281;54.406;18.556;2022-07-29T10:55:51;20.70;97.10
20246;DHT22;10281;54.406;18.556;2022-07-29T10:58:20;20.60;96.90
20246;DHT22;10281;54.406;18.556;2022-07-29T11:00:50;20.70;95.30
20246;DHT22;10281;54.406;18.556;2022-07-29T11:05:56;20.70;93.70
20246;DHT22;10281;54.406;18.556;2022-07-29T11:08:23;20.60;96.00
20246;DHT22;10281;54.406;18.556;2022-07-29T11:11:30;20.60;96.70
20246;DHT22;10281;54.406;18.556;2022-07-29T11:16:00;20.70;97.60
20246;DHT22;10281;54.406;18.556;2022-07-29T11:18:26;20.70;96.10
20246;DHT22;10281;54.406;18.556;2022-07-29T11:20:53;20.70;97.00
20246;DHT22;10281;54.406;18.556;2022-07-29T11:23:24;20.70;97.40
20246;DHT22;10281;54.406;18.556;2022-07-29T11:28:31;20.80;98.20
20246;DHT22;10281;54.406;18.556;2022-07-29T11:30:59;20.80;97.80
20246;DHT22;10281;54.406;18.556;2022-07-29T11:33:31;20.80;97.80
20246;DHT22;10281;54.406;18.556;2022-07-29T11:36:10;20.80;97.20
20246;DHT22;10281;54.406;18.556;2022-07-29T11:38:37;20.80;96.40
20246;DHT22;10281;54.406;18.556;2022-07-29T11:43:50;20.80;95.60
20246;DHT22;10281;54.406;18.556;2022-07-29T11:48:56;20.70;95.50
20246;DHT22;10281;54.406;18.556;2022-07-29T11:51:24;20.70;96.60
20246;DHT22;10281;54.406;18.556;2022-07-29T11:53:51;20.70;97.60
20246;DHT22;10281;54.406;18.556;2022-07-29T11:56:20;20.70;98.50
20246;DHT22;10281;54.406;18.556;2022-07-29T11:58:48;20.60;97.40
20246;DHT22;10281;54.406;18.556;2022-07-29T12:01:16;20.70;97.00
20246;DHT22;10281;54.406;18.556;2022-07-29T12:03:45;20.60;96.50
20246;DHT22;10281;54.406;18.556;2022-07-29T12:06:13;20.60;97.50
20246;DHT22;10281;54.406;18.556;2022-07-29T12:08:41;20.60;97.80
20246;DHT22;10281;54.406;18.556;2022-07-29T12:11:15;20.60;97.70
20246;DHT22;10281;54.406;18.556;2022-07-29T12:13:42;20.60;99.00
20246;DHT22;10281;54.406;18.556;2022-07-29T12:16:08;20.60;98.00
20246;DHT22;10281;54.406;18.556;2022-07-29T12:18:35;20.70;98.20
20246;DHT22;10281;54.406;18.556;2022-07-29T12:21:03;20.70;98.30
20246;DHT22;10281;54.406;18.556;2022-07-29T12:23:31;20.70;96.20
20246;DHT22;10281;54.406;18.556;2022-07-29T12:25:58;20.70;96.40
20246;DHT22;10281;54.406;18.556;2022-07-29T12:28:25;20.70;97.10
20246;DHT22;10281;54.406;18.556;2022-07-29T12:30:52;20.70;96.80
20246;DHT22;10281;54.406;18.556;2022-07-29T12:33:25;20.70;96.50
20246;DHT22;10281;54.406;18.556;2022-07-29T12:35:57;20.70;97.30
20246;DHT22;10281;54.406;18.556;2022-07-29T12:38:24;20.70;96.00
20246;DHT22;10281;54.406;18.556;2022-07-29T12:40:52;20.60;96.80
20246;DHT22;10281;54.406;18.556;2022-07-29T12:43:21;20.70;97.00
20246;DHT22;10281;54.406;18.556;2022-07-29T12:45:51;20.70;97.40
20246;DHT22;10281;54.406;18.556;2022-07-29T12:48:35;20.80;97.60
20246;DHT22;10281;54.406;18.556;2022-07-29T12:51:03;20.80;96.70
20246;DHT22;10281;54.406;18.556;2022-07-29T12:53:32;20.70;97.20
20246;DHT22;10281;54.406;18.556;2022-07-29T12:56:00;20.70;98.00
20246;DHT22;10281;54.406;18.556;2022-07-29T12:58:32;20.70;98.70
20246;DHT22;10281;54.406;18.556;2022-07-29T13:01:03;20.60;98.50
20246;DHT22;10281;54.406;18.556;2022-07-29T13:03:51;20.50;98.50
20246;DHT22;10281;54.406;18.556;2022-07-29T13:06:44;20.50;98.70
20246;DHT22;10281;54.406;18.556;2022-07-29T13:09:19;20.50;99.60
20246;DHT22;10281;54.406;18.556;2022-07-29T13:11:50;20.50;99.60
20246;DHT22;10281;54.406;18.556;2022-07-29T13:14:30;20.50;99.90
20246;DHT22;10281;54.406;18.556;2022-07-29T13:17:05;20.40;99.90
20246;DHT22;10281;54.406;18.556;2022-07-29T13:19:39;20.40;99.90
20246;DHT22;10281;54.406;18.556;2022-07-29T13:22:07;20.50;99.90
20246;DHT22;10281;54.406;18.556;2022-07-29T13:24:44;20.50;99.90
20246;DHT22;10281;54.406;18.556;2022-07-29T13:27:02;20.50;99.90
20246;DHT22;10281;54.406;18.556;2022-07-29T13:29:29;20.50;99.90
20246;DHT22;10281;54.406;18.556;2022-07-29T13:31:56;20.40;99.90
20246;DHT22;10281;54.406;18.556;2022-07-29T13:34:22;20.50;99.90
20246;DHT22;10281;54.406;18.556;2022-07-29T13:36:50;20.50;99.90
20246;DHT22;10281;54.406;18.556;2022-07-29T13:39:17;20.50;99.90
20246;DHT22;10281;54.406;18.556;2022-07-29T13:41:43;20.50;99.90
20246;DHT22;10281;54.406;18.556;2022-07-29T13:44:10;20.60;99.90
20246;DHT22;10281;54.406;18.556;2022-07-29T13:46:36;20.40;99.90
20246;DHT22;10281;54.406;18.556;2022-07-29T13:49:03;20.30;99.90
20246;DHT22;10281;54.406;18.556;2022-07-29T13:51:30;20.40;99.90
20246;DHT22;10281;54.406;18.556;2022-07-29T13:53:56;20.50;99.90
20246;DHT22;10281;54.406;18.556;2022-07-29T13:56:23;20.60;99.90
20246;DHT22;10281;54.406;18.556;2022-07-29T13:58:49;20.60;99.90
20246;DHT22;10281;54.406;18.556;2022-07-29T14:01:16;20.60;99.90
20246;DHT22;10281;54.406;18.556;2022-07-29T14:03:43;20.60;99.90
20246;DHT22;10281;54.406;18.556;2022-07-29T14:06:10;20.60;99.90
20246;DHT22;10281;54.406;18.556;2022-07-29T14:08:36;20.50;99.90
20246;DHT22;10281;54.406;18.556;2022-07-29T14:11:03;20.50;99.90
20246;DHT22;10281;54.406;18.556;2022-07-29T14:13:31;20.60;99.90
20246;DHT22;10281;54.406;18.556;2022-07-29T14:15:58;20.50;99.90
20246;DHT22;10281;54.406;18.556;2022-07-29T14:18:25;20.50;99.90
20246;DHT22;10281;54.406;18.556;2022-07-29T14:20:51;20.50;99.90
20246;DHT22;10281;54.406;18.556;2022-07-29T14:23:18;20.50;99.90
20246;DHT22;10281;54.406;18.556;2022-07-29T14:25:45;20.50;99.90
20246;DHT22;10281;54.406;18.556;2022-07-29T14:28:12;20.40;99.90
20246;DHT22;10281;54.406;18.556;2022-07-29T14:30:39;20.40;99.90
20246;DHT22;10281;54.406;18.556;2022-07-29T14:33:05;20.40;99.90
20246;DHT22;10281;54.406;18.556;2022-07-29T14:35:32;20.50;99.90
20246;DHT22;10281;54.406;18.556;2022-07-29T14:37:59;20.40;99.90
20246;DHT22;10281;54.406;18.556;2022-07-29T14:40:26;20.40;99.90
20246;DHT22;10281;54.406;18.556;2022-07-29T14:42:52;20.40;99.90
20246;DHT22;10281;54.406;18.556;2022-07-29T14:45:19;20.40;99.90
20246;DHT22;10281;54.406;18.556;2022-07-29T14:47:46;20.50;99.90
20246;DHT22;10281;54.406;18.556;2022-07-29T14:50:12;20.50;99.90
20246;DHT22;10281;54.406;18.556;2022-07-29T14:52:39;20.40;99.90
20246;DHT22;10281;54.406;18.556;2022-07-29T14:55:06;20.40;99.90
20246;DHT22;10281;54.406;18.556;2022-07-29T14:57:33;20.50;99.90
20246;DHT22;10281;54.406;18.556;2022-07-29T14:59:59;20.50;99.90
20246;DHT22;10281;54.406;18.556;2022-07-29T15:02:26;20.40;99.90
20246;DHT22;10281;54.406;18.556;2022-07-29T15:04:52;20.40;99.90
20246;DHT22;10281;54.406;18.556;2022-07-29T15:07:19;20.40;99.90
20246;DHT22;10281;54.406;18.556;2022-07-29T15:09:46;20.30;99.90
20246;DHT22;10281;54.406;18.556;2022-07-29T15:12:12;20.30;99.90
20246;DHT22;10281;54.406;18.556;2022-07-29T15:14:39;20.30;99.90
20246;DHT22;10281;54.406;18.556;2022-07-29T15:17:06;20.20;99.90
20246;DHT22;10281;54.406;18.556;2022-07-29T15:19:32;20.20;99.90
20246;DHT22;10281;54.406;18.556;2022-07-29T15:21:59;20.20;99.90
20246;DHT22;10281;54.406;18.556;2022-07-29T15:24:26;20.10;99.90
20246;DHT22;10281;54.406;18.556;2022-07-29T15:26:54;20.20;99.90
20246;DHT22;10281;54.406;18.556;2022-07-29T15:29:21;20.00;99.90
20246;DHT22;10281;54.406;18.556;2022-07-29T15:31:47;20.00;99.90
20246;DHT22;10281;54.406;18.556;2022-07-29T15:34:14;20.00;99.90
20246;DHT22;10281;54.406;18.556;2022-07-29T15:36:41;20.00;99.90
20246;DHT22;10281;54.406;18.556;2022-07-29T15:39:07;20.00;99.90
20246;DHT22;10281;54.406;18.556;2022-07-29T15:41:35;20.00;99.90
20246;DHT22;10281;54.406;18.556;2022-07-29T15:44:01;20.00;99.90
20246;DHT22;10281;54.406;18.556;2022-07-29T15:46:28;20.00;99.90